Time;durP1;ratioP1;P1;durP2;ratioP2;P2;SDS_P1;SDS_P2;PMS_P1;PMS_P2;Temp;Humidity;BMP_temperature;BMP_pressure;BME280_temperature;BME280_humidity;BME280_pressure;Samples;Min_cycle;Max_cycle;Signal;HPM_P1;HPM_P2
2022/01/10 00:00:54;;;;;;;4.72;2.72;;;5.90;77.60;;;;;;5013322;28;20038;-89
2022/01/10 00:03:24;;;;;;;4.20;3.17;;;5.80;77.60;;;;;;5001123;28;20045;-89
2022/01/10 00:05:50;;;;;;;4.45;2.85;;;5.80;77.60;;;;;;5034366;28;20033;-88
2022/01/10 00:08:22;;;;;;;4.55;3.25;;;5.80;77.60;;;;;;5015958;28;20034;-89
2022/01/10 00:10:48;;;;;;;4.45;2.90;;;5.80;77.60;;;;;;5016307;28;20149;-88
2022/01/10 00:13:18;;;;;;;4.70;2.90;;;5.80;77.60;;;;;;5029125;28;20071;-89
2022/01/10 00:15:44;;;;;;;5.28;3.40;;;5.70;77.60;;;;;;5016872;28;20026;-88
2022/01/10 00:18:13;;;;;;;5.40;3.20;;;5.70;77.50;;;;;;5030150;28;20022;-88
2022/01/10 00:20:42;;;;;;;4.97;3.10;;;5.70;77.60;;;;;;5023190;28;20124;-88
2022/01/10 00:23:09;;;;;;;3.58;2.83;;;5.70;77.60;;;;;;5034659;28;20037;-88
2022/01/10 00:25:37;;;;;;;4.97;3.17;;;5.60;77.50;;;;;;5023175;28;20025;-88
2022/01/10 00:28:05;;;;;;;4.88;3.00;;;5.60;77.50;;;;;;5000645;28;20038;-89
2022/01/10 00:30:31;;;;;;;4.60;3.30;;;5.60;77.50;;;;;;5034782;28;20025;-88
2022/01/10 00:33:00;;;;;;;4.43;2.80;;;5.60;77.50;;;;;;5028327;28;20060;-88
2022/01/10 00:35:25;;;;;;;3.75;2.97;;;5.60;77.60;;;;;;5016291;28;20049;-88
2022/01/10 00:37:51;;;;;;;5.65;3.47;;;5.60;77.50;;;;;;5032925;28;20024;-89
2022/01/10 00:40:20;;;;;;;5.25;3.10;;;5.50;77.50;;;;;;5025761;28;20032;-87
2022/01/10 00:42:55;;;;;;;5.35;3.47;;;5.50;77.50;;;;;;5043208;28;20032;-86
2022/01/10 00:45:26;;;;;;;6.93;3.15;;;5.50;77.50;;;;;;5036700;28;20028;-88
2022/01/10 00:47:59;;;;;;;4.22;2.95;;;5.40;77.50;;;;;;5020396;28;20044;-88
2022/01/10 00:50:29;;;;;;;4.85;3.15;;;5.50;77.60;;;;;;5053604;28;20033;-88
2022/01/10 00:53:02;;;;;;;3.63;3.00;;;5.40;77.50;;;;;;5037372;28;20029;-88
2022/01/10 00:55:31;;;;;;;5.45;3.20;;;5.40;77.50;;;;;;5020924;28;20034;-88
2022/01/10 00:57:57;;;;;;;5.90;3.25;;;5.40;77.50;;;;;;5047675;28;20576;-88
2022/01/10 01:00:23;;;;;;;5.80;3.50;;;5.30;77.50;;;;;;5022584;28;20116;-88
2022/01/10 01:02:49;;;;;;;4.93;3.20;;;5.30;77.50;;;;;;5046017;28;20025;-89
2022/01/10 01:05:18;;;;;;;4.75;3.50;;;5.30;77.50;;;;;;5041365;28;20036;-88
2022/01/10 01:07:47;;;;;;;4.43;3.03;;;5.30;77.50;;;;;;5036105;28;20025;-89
2022/01/10 01:13:06;;;;;;;4.78;3.10;;;5.30;77.50;;;;;;5025192;28;20519;-88
2022/01/10 01:15:44;;;;;;;5.05;3.63;;;5.20;77.40;;;;;;5054944;28;20182;-88
2022/01/10 01:18:19;;;;;;;5.20;3.35;;;5.20;77.50;;;;;;5036972;28;20013;-87
2022/01/10 01:24:00;;;;;;;4.63;3.25;;;5.20;77.50;;;;;;5034981;28;20021;-87
2022/01/10 01:26:15;;;;;;;4.88;3.40;;;5.10;77.40;;;;;;5028644;28;20033;-88
2022/01/10 01:28:41;;;;;;;4.35;3.17;;;5.10;77.40;;;;;;5037712;28;20484;-85
2022/01/10 01:31:09;;;;;;;6.70;3.20;;;5.10;77.50;;;;;;5035280;28;20021;-85
2022/01/10 01:33:40;;;;;;;6.53;3.85;;;5.10;77.50;;;;;;5031461;28;20016;-87
2022/01/10 01:36:09;;;;;;;5.50;3.60;;;5.10;77.50;;;;;;5058337;28;20092;-86
2022/01/10 01:38:37;;;;;;;4.85;3.67;;;5.10;77.50;;;;;;5053387;28;20113;-87
2022/01/10 01:41:23;;;;;;;5.78;3.30;;;5.00;78.10;;;;;;5067711;28;20457;-85
2022/01/10 01:43:51;;;;;;;5.43;3.40;;;5.00;77.50;;;;;;5021264;28;20092;-85
2022/01/10 01:46:18;;;;;;;4.95;3.60;;;5.00;77.50;;;;;;5045397;28;20055;-84
2022/01/10 01:48:45;;;;;;;4.47;3.47;;;5.00;77.40;;;;;;5046736;28;20032;-85
2022/01/10 01:51:14;;;;;;;5.13;3.53;;;5.00;77.50;;;;;;5044105;28;20040;-85
2022/01/10 01:53:41;;;;;;;5.80;3.83;;;4.90;77.40;;;;;;5045801;28;20025;-85
2022/01/10 01:56:09;;;;;;;4.20;3.13;;;5.00;77.50;;;;;;5018470;28;20537;-85
2022/01/10 01:58:36;;;;;;;6.53;3.92;;;4.90;77.40;;;;;;5031884;28;20033;-84
2022/01/10 02:01:04;;;;;;;4.80;3.47;;;4.90;77.40;;;;;;5033829;28;20362;-85
2022/01/10 02:03:33;;;;;;;5.88;3.95;;;4.90;77.40;;;;;;5051415;28;20037;-84
2022/01/10 02:06:02;;;;;;;4.95;3.75;;;4.90;77.40;;;;;;5034302;28;20055;-85
2022/01/10 02:08:28;;;;;;;5.03;3.55;;;4.80;77.30;;;;;;5035120;28;20037;-85
2022/01/10 02:10:54;;;;;;;5.72;3.65;;;4.80;77.40;;;;;;5034849;28;20029;-85
2022/01/10 02:13:21;;;;;;;6.35;4.50;;;4.80;77.40;;;;;;5018365;28;20033;-84
2022/01/10 02:15:56;;;;;;;5.13;3.90;;;4.80;77.40;;;;;;5034730;28;20169;-85
2022/01/10 02:18:25;;;;;;;5.55;3.95;;;4.80;77.40;;;;;;5035035;28;20025;-85
2022/01/10 02:21:00;;;;;;;5.18;3.75;;;4.80;77.40;;;;;;5034034;28;20025;-86
2022/01/10 02:23:29;;;;;;;5.72;3.42;;;4.80;77.40;;;;;;5025735;28;20037;-84
2022/01/10 02:26:04;;;;;;;5.68;3.72;;;4.70;77.30;;;;;;5046910;28;20025;-84
2022/01/10 02:28:32;;;;;;;5.40;4.00;;;4.70;77.30;;;;;;5024754;28;20191;-84
2022/01/10 02:30:59;;;;;;;4.70;3.42;;;4.70;77.30;;;;;;5039980;28;20084;-85
2022/01/10 02:33:33;;;;;;;6.18;3.83;;;4.70;77.40;;;;;;5028020;28;20037;-84
2022/01/10 02:36:14;;;;;;;6.10;4.22;;;4.70;77.40;;;;;;5045108;28;20036;-85
2022/01/10 02:38:58;;;;;;;4.95;3.83;;;4.60;77.30;;;;;;5038607;28;20048;-85
2022/01/10 02:41:31;;;;;;;7.47;4.10;;;4.60;77.40;;;;;;5038077;28;20490;-84
2022/01/10 02:44:00;;;;;;;5.28;3.92;;;4.60;77.40;;;;;;5020783;28;20040;-85
2022/01/10 02:46:27;;;;;;;6.05;4.03;;;4.60;77.40;;;;;;5036249;28;20028;-84
2022/01/10 02:48:53;;;;;;;5.82;4.00;;;4.50;77.70;;;;;;5037074;28;20064;-84
2022/01/10 02:51:20;;;;;;;6.38;4.40;;;4.50;77.30;;;;;;5024973;28;20032;-83
2022/01/10 02:53:50;;;;;;;6.05;4.45;;;4.50;77.40;;;;;;5036085;28;20056;-85
2022/01/10 02:56:16;;;;;;;6.20;4.45;;;4.50;77.30;;;;;;5032464;28;20079;-85
2022/01/10 02:58:42;;;;;;;5.50;4.18;;;4.50;77.30;;;;;;5004603;28;20064;-84
2022/01/10 03:01:08;;;;;;;6.45;4.50;;;4.50;77.30;;;;;;5046749;28;20063;-84
2022/01/10 03:03:35;;;;;;;5.93;4.20;;;4.50;77.30;;;;;;5070153;28;20466;-84
2022/01/10 03:06:02;;;;;;;5.07;3.95;;;4.40;77.30;;;;;;5043725;28;20027;-85
2022/01/10 03:08:29;;;;;;;7.07;4.80;;;4.40;77.30;;;;;;5044733;28;20037;-84
2022/01/10 03:10:58;;;;;;;5.90;4.25;;;4.40;77.30;;;;;;5043134;28;20470;-85
2022/01/10 03:13:24;;;;;;;6.28;4.57;;;4.40;77.30;;;;;;5025975;28;20119;-84
2022/01/10 03:15:50;;;;;;;6.50;4.63;;;4.40;77.30;;;;;;5019710;28;20032;-85
2022/01/10 03:18:16;;;;;;;5.70;4.13;;;4.40;77.30;;;;;;5035725;28;20632;-85
2022/01/10 03:20:42;;;;;;;6.45;4.22;;;4.40;77.30;;;;;;5035397;28;20041;-84
2022/01/10 03:23:09;;;;;;;5.88;4.47;;;4.40;77.30;;;;;;5032659;28;20029;-84
2022/01/10 03:25:35;;;;;;;6.25;4.63;;;4.30;77.30;;;;;;5030357;28;20020;-85
2022/01/10 03:28:05;;;;;;;5.97;4.22;;;4.30;77.30;;;;;;5043698;28;20083;-85
2022/01/10 03:30:31;;;;;;;6.60;4.50;;;4.30;77.30;;;;;;5056215;28;20527;-84
2022/01/10 03:33:01;;;;;;;6.10;4.85;;;4.30;77.30;;;;;;5029597;28;20062;-85
2022/01/10 03:35:32;;;;;;;6.13;4.90;;;4.30;77.30;;;;;;5040665;28;20029;-85
2022/01/10 03:37:58;;;;;;;6.85;4.70;;;4.30;77.30;;;;;;5019928;28;20028;-85
2022/01/10 03:40:27;;;;;;;6.17;4.90;;;4.30;77.30;;;;;;4958325;28;1972701;-85
2022/01/10 03:42:56;;;;;;;6.25;4.72;;;4.30;77.30;;;;;;5053445;28;20512;-85
2022/01/10 03:45:22;;;;;;;6.95;4.75;;;4.30;77.30;;;;;;5050571;28;20017;-85
2022/01/10 03:47:48;;;;;;;5.70;4.45;;;4.20;77.20;;;;;;5052135;28;20032;-85
2022/01/10 03:50:14;;;;;;;6.97;4.90;;;4.20;77.30;;;;;;5042139;28;20029;-85
2022/01/10 03:52:42;;;;;;;6.70;4.95;;;4.20;77.20;;;;;;5052042;28;20030;-86
2022/01/10 03:55:09;;;;;;;6.32;4.70;;;4.20;77.20;;;;;;5012137;28;20060;-85
2022/01/10 03:57:35;;;;;;;5.63;4.13;;;4.20;77.20;;;;;;5012622;28;20033;-85
2022/01/10 04:00:03;;;;;;;5.90;4.63;;;4.20;77.20;;;;;;5016893;28;20027;-85
2022/01/10 04:02:31;;;;;;;6.78;5.20;;;4.10;77.20;;;;;;5025329;28;20034;-85
2022/01/10 04:04:57;;;;;;;6.43;4.70;;;4.10;77.20;;;;;;5039972;28;20120;-85
2022/01/10 04:07:23;;;;;;;7.60;4.93;;;4.10;77.30;;;;;;5031504;28;20119;-85
2022/01/10 04:09:49;;;;;;;7.25;4.88;;;4.10;77.30;;;;;;5023834;28;20112;-85
2022/01/10 04:12:22;;;;;;;6.80;4.85;;;4.10;77.30;;;;;;5031155;28;20024;-85
2022/01/10 04:14:51;;;;;;;6.85;5.15;;;4.10;77.30;;;;;;5033397;28;20025;-85
2022/01/10 04:17:17;;;;;;;5.63;4.72;;;4.10;77.30;;;;;;5064533;28;20036;-85
2022/01/10 04:19:43;;;;;;;6.72;4.68;;;4.00;77.20;;;;;;5015412;28;20029;-85
2022/01/10 04:22:11;;;;;;;6.57;4.65;;;4.00;77.20;;;;;;5038989;28;20024;-85
2022/01/10 04:24:38;;;;;;;5.97;4.60;;;4.00;77.30;;;;;;5046835;28;20024;-85
2022/01/10 04:27:06;;;;;;;7.68;4.88;;;4.00;77.30;;;;;;5020643;28;20041;-85
2022/01/10 04:29:32;;;;;;;7.22;5.07;;;4.00;77.30;;;;;;5054011;28;20025;-86
2022/01/10 04:32:04;;;;;;;6.93;5.18;;;4.00;77.30;;;;;;5060301;28;20107;-86
2022/01/10 04:34:38;;;;;;;7.00;5.07;;;4.00;77.30;;;;;;5026341;28;20033;-85
2022/01/10 04:37:04;;;;;;;6.63;4.82;;;4.00;77.90;;;;;;5058581;28;20502;-85
2022/01/10 04:39:30;;;;;;;6.85;4.75;;;4.00;77.30;;;;;;5047089;28;20041;-85
2022/01/10 04:42:00;;;;;;;7.93;4.95;;;4.00;77.30;;;;;;5031499;28;20140;-85
2022/01/10 04:44:28;;;;;;;6.70;5.18;;;4.00;77.30;;;;;;5036003;28;20079;-85
2022/01/10 04:46:54;;;;;;;7.00;5.40;;;3.90;77.30;;;;;;5052165;28;20481;-86
2022/01/10 04:49:24;;;;;;;6.30;4.85;;;3.90;77.30;;;;;;5049591;28;20031;-85
2022/01/10 04:51:51;;;;;;;6.85;5.03;;;3.90;77.30;;;;;;5003462;28;20086;-85
2022/01/10 04:54:17;;;;;;;6.53;5.20;;;3.90;77.30;;;;;;5044143;28;20016;-85
2022/01/10 04:56:44;;;;;;;7.88;5.60;;;3.90;77.30;;;;;;5026372;28;20064;-84
2022/01/10 04:59:14;;;;;;;7.82;5.18;;;4.00;77.40;;;;;;5024105;28;20060;-85
2022/01/10 05:01:40;;;;;;;7.22;5.03;;;3.90;77.40;;;;;;5032146;28;20052;-84
2022/01/10 05:04:09;;;;;;;7.10;5.50;;;3.90;77.40;;;;;;5059649;28;20160;-84
2022/01/10 05:06:35;;;;;;;6.00;5.03;;;3.90;77.40;;;;;;5040663;28;20060;-84
2022/01/10 05:09:02;;;;;;;6.97;5.10;;;3.90;77.40;;;;;;5010975;28;20029;-84
2022/01/10 05:11:58;;;;;;;7.18;5.15;;;3.90;77.40;;;;;;5029900;28;20076;-85
2022/01/10 05:14:25;;;;;;;6.60;5.20;;;3.90;77.40;;;;;;5022256;28;20029;-84
2022/01/10 05:16:52;;;;;;;7.00;5.38;;;3.90;77.50;;;;;;5038513;28;20032;-85
2022/01/10 05:19:19;;;;;;;7.78;5.25;;;3.90;77.50;;;;;;5043205;28;20036;-85
2022/01/10 05:21:45;;;;;;;7.57;5.32;;;3.90;77.50;;;;;;5037811;28;20020;-85
2022/01/10 05:24:11;;;;;;;6.57;4.93;;;3.90;77.50;;;;;;5036639;28;20028;-85
2022/01/10 05:26:37;;;;;;;7.47;5.90;;;3.90;77.60;;;;;;5041688;28;20032;-84
2022/01/10 05:29:04;;;;;;;7.35;5.28;;;3.90;78.20;;;;;;5038514;28;20048;-85
2022/01/10 05:31:35;;;;;;;8.40;5.82;;;3.90;77.60;;;;;;5039808;28;20018;-85
2022/01/10 05:34:11;;;;;;;6.40;5.20;;;4.00;77.60;;;;;;5034513;28;20434;-85
2022/01/10 05:36:38;;;;;;;7.30;5.40;;;3.90;77.50;;;;;;5035010;28;20033;-84
2022/01/10 05:39:07;;;;;;;6.55;5.10;;;4.00;77.60;;;;;;5007402;28;20021;-84
2022/01/10 05:41:35;;;;;;;6.75;5.18;;;3.90;77.60;;;;;;5055666;28;20442;-88
2022/01/10 05:44:01;;;;;;;7.25;5.32;;;4.00;77.70;;;;;;5021212;28;20412;-84
2022/01/10 05:46:27;;;;;;;7.25;5.40;;;4.00;77.70;;;;;;5041974;28;20055;-85
2022/01/10 05:49:01;;;;;;;7.18;5.65;;;4.00;77.60;;;;;;5040406;28;20488;-87
2022/01/10 05:51:34;;;;;;;7.03;5.05;;;4.00;77.70;;;;;;5022045;28;20037;-86
2022/01/10 05:54:15;;;;;;;7.07;5.47;;;4.00;77.70;;;;;;5026486;28;20041;-86
2022/01/10 05:56:44;;;;;;;6.70;5.30;;;4.00;77.80;;;;;;5046329;28;20059;-86
2022/01/10 05:59:10;;;;;;;8.40;5.80;;;4.00;77.70;;;;;;5031194;28;20033;-86
2022/01/10 06:01:38;;;;;;;8.02;5.97;;;4.00;77.80;;;;;;5049225;28;20116;-86
2022/01/10 06:04:20;;;;;;;8.90;5.63;;;4.00;77.80;;;;;;5038664;28;20024;-86
2022/01/10 06:06:49;;;;;;;8.20;5.55;;;4.00;77.80;;;;;;5042410;28;20117;-86
2022/01/10 06:09:15;;;;;;;7.07;5.38;;;4.00;77.80;;;;;;5029963;28;20021;-86
2022/01/10 06:11:42;;;;;;;6.90;5.72;;;4.00;77.80;;;;;;5043446;28;20061;-87
2022/01/10 06:14:12;;;;;;;7.43;5.20;;;4.00;77.80;;;;;;5037700;28;20124;-86
2022/01/10 06:16:38;;;;;;;8.57;6.05;;;4.00;77.80;;;;;;5045644;28;20831;-83
2022/01/10 06:19:04;;;;;;;7.55;5.90;;;4.10;77.90;;;;;;5023715;28;20083;-83
2022/01/10 06:21:30;;;;;;;7.03;5.78;;;4.10;77.90;;;;;;5036702;28;20531;-84
2022/01/10 06:23:58;;;;;;;8.00;5.93;;;4.10;77.90;;;;;;5037223;28;20028;-86
2022/01/10 06:26:24;;;;;;;7.47;5.78;;;4.10;77.90;;;;;;5016660;28;20041;-84
2022/01/10 06:28:50;;;;;;;6.70;5.30;;;4.10;77.90;;;;;;5035056;28;20026;-84
2022/01/10 06:31:16;;;;;;;7.82;5.80;;;4.10;77.90;;;;;;5044313;28;20048;-84
2022/01/10 06:33:54;;;;;;;7.20;5.70;;;4.10;77.90;;;;;;5034600;28;20033;-84
2022/01/10 06:36:20;;;;;;;8.13;5.93;;;4.10;78.00;;;;;;5006119;28;20101;-84
2022/01/10 06:38:51;;;;;;;7.38;5.47;;;4.10;78.00;;;;;;5035745;28;20155;-83
2022/01/10 06:41:18;;;;;;;7.22;5.97;;;4.10;78.00;;;;;;5032052;28;20484;-82
2022/01/10 06:43:45;;;;;;;8.35;5.97;;;4.10;78.00;;;;;;5033281;28;20021;-83
2022/01/10 06:46:12;;;;;;;6.63;5.53;;;4.10;78.00;;;;;;5013158;28;20041;-83
2022/01/10 06:48:38;;;;;;;6.70;5.43;;;4.10;78.00;;;;;;5020931;28;20189;-83
2022/01/10 06:51:04;;;;;;;7.90;5.50;;;4.10;78.00;;;;;;5048775;28;20033;-82
2022/01/10 06:53:32;;;;;;;7.32;5.40;;;4.10;78.00;;;;;;5001396;28;20026;-83
2022/01/10 06:56:00;;;;;;;6.97;5.57;;;4.10;78.00;;;;;;5029532;28;20294;-84
2022/01/10 06:58:27;;;;;;;6.85;5.50;;;4.10;78.00;;;;;;5038567;28;20029;-83
2022/01/10 07:00:53;;;;;;;7.63;5.40;;;4.10;78.00;;;;;;5068671;28;20123;-83
2022/01/10 07:03:19;;;;;;;7.78;6.35;;;4.10;78.00;;;;;;5026489;28;20151;-83
2022/01/10 07:05:57;;;;;;;7.53;5.97;;;4.10;78.00;;;;;;5044339;28;20033;-85
2022/01/10 07:08:25;;;;;;;7.47;6.30;;;4.20;78.10;;;;;;5013671;28;20060;-84
2022/01/10 07:10:55;;;;;;;7.78;5.93;;;4.20;78.10;;;;;;5029262;28;20066;-84
2022/01/10 07:13:24;;;;;;;6.68;5.65;;;4.20;78.10;;;;;;5031239;28;20551;-85
2022/01/10 07:15:51;;;;;;;8.30;6.38;;;4.20;78.20;;;;;;5066053;28;20043;-85
2022/01/10 07:18:17;;;;;;;7.28;5.65;;;4.20;78.10;;;;;;5013922;28;20036;-85
2022/01/10 07:20:48;;;;;;;8.05;6.22;;;4.20;78.10;;;;;;5047473;28;20081;-86
2022/01/10 07:23:15;;;;;;;7.00;5.80;;;4.20;78.20;;;;;;5032234;28;20040;-85
2022/01/10 07:25:41;;;;;;;7.72;6.10;;;4.20;78.20;;;;;;5033128;28;20381;-86
2022/01/10 07:28:07;;;;;;;7.43;5.72;;;4.20;78.20;;;;;;5063200;28;20048;-86
2022/01/10 07:30:33;;;;;;;7.80;6.18;;;4.20;78.20;;;;;;5053153;28;20017;-86
2022/01/10 07:32:59;;;;;;;8.15;6.50;;;4.20;78.20;;;;;;5034655;28;20044;-86
2022/01/10 07:35:25;;;;;;;7.72;6.20;;;4.20;78.20;;;;;;5072813;28;20489;-85
2022/01/10 07:37:51;;;;;;;7.70;6.00;;;4.20;78.20;;;;;;5032049;28;20032;-85
2022/01/10 07:40:17;;;;;;;8.38;6.28;;;4.20;78.20;;;;;;5065722;28;20099;-85
2022/01/10 07:42:43;;;;;;;7.53;6.18;;;4.20;78.20;;;;;;5032238;28;20041;-86
2022/01/10 07:45:13;;;;;;;7.25;5.72;;;4.20;78.20;;;;;;5050525;28;20056;-88
2022/01/10 07:47:39;;;;;;;7.32;6.00;;;4.20;78.20;;;;;;5047128;28;20102;-86
2022/01/10 07:50:05;;;;;;;7.35;6.10;;;4.20;78.20;;;;;;5051037;28;20029;-86
2022/01/10 07:52:31;;;;;;;6.75;5.50;;;4.20;78.20;;;;;;5065555;28;20017;-87
2022/01/10 07:54:57;;;;;;;8.57;6.35;;;4.20;78.20;;;;;;5053968;28;20028;-87
2022/01/10 07:57:23;;;;;;;7.82;5.93;;;4.20;78.20;;;;;;5063348;28;20029;-88
2022/01/10 07:59:49;;;;;;;8.65;6.18;;;4.20;78.20;;;;;;5062400;28;20155;-85
2022/01/10 08:02:20;;;;;;;8.48;6.22;;;4.30;78.20;;;;;;5036643;28;20025;-87
2022/01/10 08:04:47;;;;;;;7.25;6.05;;;4.30;78.20;;;;;;5062213;28;20032;-89
2022/01/10 08:07:13;;;;;;;8.55;6.43;;;4.30;78.20;;;;;;5032358;28;20036;-86
2022/01/10 08:09:39;;;;;;;8.40;6.18;;;4.20;78.10;;;;;;5054687;28;20100;-85
2022/01/10 08:12:05;;;;;;;8.07;6.47;;;4.20;78.20;;;;;;5050057;28;20052;-84
2022/01/10 08:14:32;;;;;;;8.70;5.90;;;4.20;78.20;;;;;;5046108;28;20048;-86
2022/01/10 08:16:59;;;;;;;8.80;6.10;;;4.20;78.20;;;;;;5048570;28;20091;-85
2022/01/10 08:19:27;;;;;;;7.65;6.18;;;4.20;78.20;;;;;;5038044;28;20123;-82
2022/01/10 08:21:55;;;;;;;8.05;5.53;;;4.20;78.20;;;;;;5024341;28;20052;-83
2022/01/10 08:24:24;;;;;;;8.40;6.47;;;4.20;78.10;;;;;;5072356;28;20048;-80
2022/01/10 08:26:51;;;;;;;9.32;6.60;;;4.20;78.10;;;;;;5040017;28;20054;-82
2022/01/10 08:29:17;;;;;;;9.48;6.90;;;4.20;78.20;;;;;;5050802;28;20016;-82
2022/01/10 08:31:43;;;;;;;8.43;6.35;;;4.20;78.20;;;;;;5047904;28;20123;-83
2022/01/10 08:34:08;;;;;;;7.50;5.75;;;4.20;78.20;;;;;;5045807;28;20132;-82
2022/01/10 08:36:34;;;;;;;8.55;6.10;;;4.20;78.20;;;;;;5064425;28;20079;-84
2022/01/10 08:39:01;;;;;;;8.00;5.93;;;4.20;78.20;;;;;;5025674;28;20041;-85
2022/01/10 08:41:27;;;;;;;8.10;6.60;;;4.20;78.20;;;;;;5032543;28;20094;-84
2022/01/10 08:43:53;;;;;;;7.65;6.18;;;4.20;78.20;;;;;;5033992;28;20029;-85
2022/01/10 08:46:19;;;;;;;8.38;6.07;;;4.20;78.20;;;;;;5033409;28;20437;-85
2022/01/10 08:48:45;;;;;;;7.72;6.13;;;4.20;78.30;;;;;;5021600;28;20035;-84
2022/01/10 08:51:11;;;;;;;8.32;6.40;;;4.20;78.20;;;;;;5033315;28;20022;-85
2022/01/10 08:53:37;;;;;;;7.25;5.90;;;4.20;78.20;;;;;;5015324;28;20038;-85
2022/01/10 08:56:03;;;;;;;7.93;6.40;;;4.20;78.20;;;;;;5028195;28;20089;-85
2022/01/10 08:58:32;;;;;;;9.00;6.97;;;4.20;78.20;;;;;;5022076;28;20060;-86
2022/01/10 09:01:06;;;;;;;9.20;6.82;;;4.20;78.20;;;;;;5027644;28;20482;-84
2022/01/10 09:03:33;;;;;;;9.70;6.85;;;4.20;78.30;;;;;;5026395;28;20021;-87
2022/01/10 09:05:59;;;;;;;7.65;6.20;;;4.20;78.30;;;;;;5039044;28;20070;-86
2022/01/10 09:08:31;;;;;;;8.88;6.72;;;4.20;78.30;;;;;;5033113;28;20025;-86
2022/01/10 09:11:00;;;;;;;9.10;6.63;;;4.20;78.30;;;;;;5039332;28;20026;-85
2022/01/10 09:13:27;;;;;;;7.88;6.50;;;4.30;78.40;;;;;;5026459;28;20115;-86
2022/01/10 09:15:55;;;;;;;9.68;6.85;;;4.30;78.30;;;;;;5032452;28;20064;-86
2022/01/10 09:18:21;;;;;;;7.85;6.22;;;4.30;78.40;;;;;;5018416;28;20061;-86
2022/01/10 09:20:47;;;;;;;7.68;6.50;;;4.30;78.30;;;;;;5046876;28;20481;-86
2022/01/10 09:23:13;;;;;;;8.27;6.32;;;4.30;78.30;;;;;;5016454;28;20028;-85
2022/01/10 09:25:39;;;;;;;8.45;6.55;;;4.30;78.40;;;;;;5025288;28;20021;-85
2022/01/10 09:28:05;;;;;;;7.90;6.18;;;4.30;78.40;;;;;;5038657;28;20033;-86
2022/01/10 09:30:31;;;;;;;8.38;6.72;;;4.30;78.40;;;;;;4992794;28;20029;-86
2022/01/10 09:33:00;;;;;;;8.77;6.93;;;4.30;78.40;;;;;;5036855;28;20031;-85
2022/01/10 09:35:34;;;;;;;8.25;5.97;;;4.30;78.40;;;;;;5025416;28;20433;-87
2022/01/10 09:38:03;;;;;;;9.20;6.65;;;4.30;78.40;;;;;;5036449;28;20029;-87
2022/01/10 09:40:37;;;;;;;8.15;6.07;;;4.30;78.40;;;;;;5049393;28;20083;-81
2022/01/10 09:43:05;;;;;;;8.07;6.07;;;4.30;78.40;;;;;;5027232;28;20017;-87
2022/01/10 09:45:34;;;;;;;9.05;6.75;;;4.40;78.50;;;;;;5019165;28;20033;-87
2022/01/10 09:48:03;;;;;;;8.25;6.50;;;4.30;78.40;;;;;;5042240;28;20036;-87
2022/01/10 09:50:29;;;;;;;8.38;6.57;;;4.30;78.40;;;;;;5059448;28;20054;-87
2022/01/10 09:52:55;;;;;;;8.73;6.70;;;4.40;78.50;;;;;;5046344;28;20423;-87
2022/01/10 09:55:23;;;;;;;8.32;6.88;;;4.40;78.50;;;;;;5045935;28;20028;-88
2022/01/10 09:57:49;;;;;;;8.52;6.55;;;4.40;78.50;;;;;;5027832;28;20558;-88
2022/01/10 10:00:16;;;;;;;8.80;6.43;;;4.40;78.50;;;;;;5034959;28;20029;-87
2022/01/10 10:02:42;;;;;;;7.20;5.93;;;4.40;78.50;;;;;;5050878;28;20048;-88
2022/01/10 10:05:12;;;;;;;9.18;6.47;;;4.40;78.50;;;;;;5018860;28;20114;-87
2022/01/10 10:07:39;;;;;;;8.88;6.57;;;4.50;78.60;;;;;;5034766;28;20037;-90
2022/01/10 10:10:11;;;;;;;8.32;6.10;;;4.50;78.60;;;;;;5028930;28;20029;-87
2022/01/10 10:12:41;;;;;;;7.70;6.15;;;4.50;78.60;;;;;;5029843;28;20038;-89
2022/01/10 10:15:09;;;;;;;7.85;6.25;;;4.50;78.60;;;;;;5029204;28;20030;-87
2022/01/10 10:17:37;;;;;;;7.72;6.25;;;4.50;78.60;;;;;;5029811;28;20024;-87
2022/01/10 10:20:07;;;;;;;8.15;6.68;;;4.50;78.60;;;;;;5028680;28;20020;-88
2022/01/10 10:22:33;;;;;;;8.13;6.63;;;4.60;78.70;;;;;;5059574;28;20032;-88
2022/01/10 10:24:59;;;;;;;9.38;6.80;;;4.60;78.70;;;;;;5060542;28;20021;-89
2022/01/10 10:27:34;;;;;;;8.25;6.93;;;4.60;78.70;;;;;;5048448;28;20085;-88
2022/01/10 10:30:05;;;;;;;8.02;6.45;;;4.60;78.70;;;;;;5038878;28;20039;-88
2022/01/10 10:32:30;;;;;;;7.72;6.00;;;4.60;78.70;;;;;;5045023;28;20033;-88
2022/01/10 10:35:02;;;;;;;8.60;7.18;;;4.70;78.70;;;;;;5029685;28;20028;-88
2022/01/10 10:37:29;;;;;;;9.18;7.60;;;4.70;78.70;;;;;;5012950;28;20063;-87
2022/01/10 10:40:03;;;;;;;8.52;7.03;;;4.70;78.70;;;;;;5032747;28;20485;-88
2022/01/10 10:42:29;;;;;;;10.13;6.95;;;4.70;78.80;;;;;;5043424;28;20075;-88
2022/01/10 10:44:56;;;;;;;8.32;6.90;;;4.80;78.80;;;;;;5030769;28;20033;-87
2022/01/10 10:47:26;;;;;;;8.38;6.85;;;4.80;78.70;;;;;;5034095;28;20029;-88
2022/01/10 10:49:57;;;;;;;9.30;6.80;;;4.90;78.80;;;;;;5042606;28;20384;-88
2022/01/10 10:52:29;;;;;;;9.10;7.10;;;4.90;78.80;;;;;;5053860;28;20022;-87
2022/01/10 10:55:02;;;;;;;8.48;6.38;;;4.90;78.80;;;;;;5023604;28;20059;-88
2022/01/10 10:57:28;;;;;;;8.80;6.78;;;4.90;78.80;;;;;;5033442;28;20413;-88
2022/01/10 10:59:54;;;;;;;8.63;6.47;;;4.90;78.80;;;;;;5030874;28;20036;-86
2022/01/10 11:02:23;;;;;;;9.70;7.03;;;4.90;78.70;;;;;;5065707;28;20021;-89
2022/01/10 11:04:54;;;;;;;8.52;6.78;;;5.00;78.80;;;;;;5048617;28;20025;-88
2022/01/10 11:07:23;;;;;;;8.40;6.55;;;5.00;78.80;;;;;;5060177;28;20190;-88
2022/01/10 11:09:50;;;;;;;8.55;6.82;;;5.00;78.80;;;;;;5026381;28;20063;-88
2022/01/10 11:12:22;;;;;;;8.75;7.03;;;5.00;78.80;;;;;;5041182;28;20469;-89
2022/01/10 11:14:49;;;;;;;8.10;6.50;;;5.00;78.80;;;;;;5025612;28;20056;-89
2022/01/10 11:17:25;;;;;;;8.40;6.97;;;5.10;78.90;;;;;;5047991;28;20068;-88
2022/01/10 11:20:22;;;;;;;8.68;6.85;;;5.10;78.90;;;;;;5065861;28;20033;-88
2022/01/10 11:22:54;;;;;;;9.30;6.85;;;5.10;79.00;;;;;;5032784;28;20028;-87
2022/01/10 11:25:30;;;;;;;9.13;6.63;;;5.10;78.80;;;;;;5022350;28;20028;-87
2022/01/10 11:28:06;;;;;;;8.88;7.28;;;5.10;78.90;;;;;;5038859;28;20040;-88
2022/01/10 11:30:40;;;;;;;10.82;7.43;;;5.10;78.90;;;;;;5038832;28;20088;-89
2022/01/10 11:33:07;;;;;;;10.27;7.43;;;5.20;79.00;;;;;;5042895;28;20751;-93
2022/01/10 11:35:45;;;;;;;10.02;6.90;;;5.20;79.00;;;;;;5041208;28;20023;-92
2022/01/10 11:38:19;;;;;;;8.98;7.15;;;5.20;79.00;;;;;;5035859;28;20036;-83
2022/01/10 11:40:56;;;;;;;8.68;6.88;;;5.20;79.00;;;;;;5058340;28;20020;-83
2022/01/10 11:43:44;;;;;;;9.60;7.30;;;5.20;79.00;;;;;;5060240;28;20025;-85
2022/01/10 11:46:19;;;;;;;10.00;7.10;;;5.20;79.10;;;;;;5058233;28;20032;-86
2022/01/10 11:48:51;;;;;;;9.35;7.10;;;5.30;79.10;;;;;;5047983;28;20032;-85
2022/01/10 11:51:45;;;;;;;9.15;7.47;;;5.30;79.10;;;;;;5075393;28;20039;-86
2022/01/10 11:54:26;;;;;;;10.40;7.72;;;5.30;79.30;;;;;;5060277;28;20033;-86
2022/01/10 11:56:59;;;;;;;10.13;7.22;;;5.30;79.20;;;;;;5072401;28;20032;-87
2022/01/10 11:59:29;;;;;;;10.18;7.80;;;5.30;79.10;;;;;;5048011;28;20036;-86
2022/01/10 12:02:04;;;;;;;10.85;7.70;;;5.40;79.20;;;;;;5065859;28;20067;-86
2022/01/10 12:05:02;;;;;;;10.18;7.43;;;5.40;79.30;;;;;;5057410;28;20110;-88
2022/01/10 12:07:28;;;;;;;9.93;7.38;;;5.40;79.30;;;;;;5022934;28;20087;-83
2022/01/10 12:09:55;;;;;;;9.82;7.65;;;5.40;79.20;;;;;;5043766;28;20454;-85
2022/01/10 12:12:24;;;;;;;10.15;7.68;;;5.40;79.20;;;;;;5031392;28;20480;-86
2022/01/10 12:14:55;;;;;;;9.55;7.25;;;5.50;79.30;;;;;;5055163;28;20032;-86
2022/01/10 12:17:21;;;;;;;8.93;7.30;;;5.50;79.30;;;;;;5064658;28;20072;-85
2022/01/10 12:19:47;;;;;;;9.73;7.22;;;5.50;79.30;;;;;;5036861;28;20058;-83
2022/01/10 12:22:13;;;;;;;10.05;7.97;;;5.50;79.30;;;;;;5038712;28;20032;-86
2022/01/10 12:24:40;;;;;;;10.48;8.30;;;5.60;79.30;;;;;;5029640;28;20021;-85
2022/01/10 12:27:08;;;;;;;11.07;8.07;;;5.60;79.30;;;;;;5052427;28;20428;-85
2022/01/10 12:29:34;;;;;;;10.27;8.25;;;5.60;79.30;;;;;;5037459;28;20029;-85
2022/01/10 12:32:01;;;;;;;9.35;7.78;;;5.60;79.30;;;;;;5033342;28;20032;-85
2022/01/10 12:34:28;;;;;;;9.93;7.68;;;5.60;79.30;;;;;;5042833;28;20029;-85
2022/01/10 12:36:56;;;;;;;9.10;7.40;;;5.70;79.30;;;;;;5028058;28;20037;-85
2022/01/10 12:39:26;;;;;;;10.82;8.25;;;5.70;79.30;;;;;;5028338;28;20484;-86
2022/01/10 12:41:56;;;;;;;9.48;7.47;;;5.70;79.30;;;;;;5062148;28;20056;-86
2022/01/10 12:44:22;;;;;;;10.23;8.13;;;5.70;79.20;;;;;;5050160;28;20453;-85
2022/01/10 12:46:48;;;;;;;10.15;8.25;;;5.80;79.30;;;;;;5028595;28;20440;-85
2022/01/10 12:49:15;;;;;;;9.70;7.72;;;5.80;79.30;;;;;;5041464;28;20083;-85
2022/01/10 12:51:45;;;;;;;10.93;7.85;;;5.80;79.30;;;;;;5017135;28;20043;-85
2022/01/10 12:54:15;;;;;;;10.50;8.18;;;5.80;79.20;;;;;;5065985;28;20059;-87
2022/01/10 12:56:41;;;;;;;9.82;8.00;;;5.90;79.30;;;;;;5043017;28;20473;-86
2022/01/10 12:59:11;;;;;;;9.93;7.75;;;5.90;79.30;;;;;;5049251;28;20481;-86
2022/01/10 13:01:36;;;;;;;10.68;8.63;;;5.90;79.20;;;;;;5026803;28;20021;-86
2022/01/10 13:04:03;;;;;;;10.30;8.25;;;5.90;79.20;;;;;;5029292;28;20091;-86
2022/01/10 13:06:37;;;;;;;9.90;7.50;;;6.00;79.30;;;;;;5032459;28;20087;-87
2022/01/10 13:09:05;;;;;;;11.43;8.63;;;6.10;79.30;;;;;;5043691;28;20024;-86